sensor_id;sensor_type;location;lat;lon;timestamp;pressure;altitude;pressure_sealevel;temperature;humidity
59073;BME280;44859;51.934;15.554;2022-09-03T00:02:13;100156.61;;;12.13;60.67
59073;BME280;44859;51.934;15.554;2022-09-03T00:07:53;100152.08;;;11.98;60.69
59073;BME280;44859;51.934;15.554;2022-09-03T00:10:30;100151.73;;;11.94;60.77
59073;BME280;44859;51.934;15.554;2022-09-03T00:13:16;100145.61;;;11.93;60.82
59073;BME280;44859;51.934;15.554;2022-09-03T00:15:51;100146.49;;;11.94;61.03
59073;BME280;44859;51.934;15.554;2022-09-03T00:18:26;100148.75;;;11.98;60.98
59073;BME280;44859;51.934;15.554;2022-09-03T00:24:02;100146.34;;;12.07;60.70
59073;BME280;44859;51.934;15.554;2022-09-03T00:26:35;100149.65;;;12.08;60.50
59073;BME280;44859;51.934;15.554;2022-09-03T00:29:17;100144.27;;;12.10;60.54
59073;BME280;44859;51.934;15.554;2022-09-03T00:31:57;100145.61;;;12.15;60.47
59073;BME280;44859;51.934;15.554;2022-09-03T00:34:38;100143.69;;;12.18;60.41
59073;BME280;44859;51.934;15.554;2022-09-03T00:37:31;100143.18;;;12.17;60.41
59073;BME280;44859;51.934;15.554;2022-09-03T00:40:12;100141.41;;;12.17;60.34
59073;BME280;44859;51.934;15.554;2022-09-03T00:42:55;100143.31;;;12.15;60.44
59073;BME280;44859;51.934;15.554;2022-09-03T00:56:20;100126.60;;;12.08;61.03
59073;BME280;44859;51.934;15.554;2022-09-03T01:00:14;100130.79;;;12.05;61.02
59073;BME280;44859;51.934;15.554;2022-09-03T01:03:35;100127.85;;;12.00;60.92
59073;BME280;44859;51.934;15.554;2022-09-03T01:06:57;100125.92;;;11.97;61.04
59073;BME280;44859;51.934;15.554;2022-09-03T01:13:17;100122.11;;;11.91;61.13
59073;BME280;44859;51.934;15.554;2022-09-03T01:28:51;100122.92;;;11.63;61.80
59073;BME280;44859;51.934;15.554;2022-09-03T01:31:42;100118.02;;;11.59;61.89
59073;BME280;44859;51.934;15.554;2022-09-03T01:44:34;100116.80;;;11.37;63.01
59073;BME280;44859;51.934;15.554;2022-09-03T01:47:17;100116.96;;;11.25;63.41
59073;BME280;44859;51.934;15.554;2022-09-03T01:50:05;100116.30;;;11.13;63.70
59073;BME280;44859;51.934;15.554;2022-09-03T01:59:00;100117.66;;;10.87;64.63
59073;BME280;44859;51.934;15.554;2022-09-03T02:04:37;100123.42;;;10.75;65.35
59073;BME280;44859;51.934;15.554;2022-09-03T02:07:19;100121.23;;;10.73;65.46
59073;BME280;44859;51.934;15.554;2022-09-03T02:09:57;100123.59;;;10.72;65.82
59073;BME280;44859;51.934;15.554;2022-09-03T02:16:17;100126.14;;;10.73;65.79
59073;BME280;44859;51.934;15.554;2022-09-03T02:19:52;100124.27;;;10.72;66.08
59073;BME280;44859;51.934;15.554;2022-09-03T02:23:36;100119.27;;;10.70;66.30
59073;BME280;44859;51.934;15.554;2022-09-03T02:26:26;100120.38;;;10.69;66.35
59073;BME280;44859;51.934;15.554;2022-09-03T02:29:00;100125.06;;;10.66;66.56
59073;BME280;44859;51.934;15.554;2022-09-03T02:32:18;100129.27;;;10.62;66.80
59073;BME280;44859;51.934;15.554;2022-09-03T02:35:25;100127.98;;;10.59;67.14
59073;BME280;44859;51.934;15.554;2022-09-03T02:38:29;100128.53;;;10.59;67.33
59073;BME280;44859;51.934;15.554;2022-09-03T02:40:58;100127.41;;;10.52;67.64
59073;BME280;44859;51.934;15.554;2022-09-03T02:43:57;100127.77;;;10.44;67.84
59073;BME280;44859;51.934;15.554;2022-09-03T02:46:47;100126.56;;;10.35;68.25
59073;BME280;44859;51.934;15.554;2022-09-03T02:49:51;100125.36;;;10.25;68.53
59073;BME280;44859;51.934;15.554;2022-09-03T02:52:43;100120.05;;;10.18;68.51
59073;BME280;44859;51.934;15.554;2022-09-03T02:55:22;100121.86;;;10.12;69.22
59073;BME280;44859;51.934;15.554;2022-09-03T02:58:04;100122.30;;;10.11;69.08
59073;BME280;44859;51.934;15.554;2022-09-03T03:00:58;100121.60;;;10.06;69.47
59073;BME280;44859;51.934;15.554;2022-09-03T03:03:27;100114.95;;;10.05;69.71
59073;BME280;44859;51.934;15.554;2022-09-03T03:05:59;100111.84;;;10.04;70.46
59073;BME280;44859;51.934;15.554;2022-09-03T03:08:28;100112.10;;;10.02;70.29
59073;BME280;44859;51.934;15.554;2022-09-03T03:11:01;100113.95;;;9.96;70.49
59073;BME280;44859;51.934;15.554;2022-09-03T03:13:34;100112.13;;;9.93;70.94
59073;BME280;44859;51.934;15.554;2022-09-03T03:16:05;100110.42;;;9.92;70.81
59073;BME280;44859;51.934;15.554;2022-09-03T03:18:45;100113.65;;;9.90;71.00
59073;BME280;44859;51.934;15.554;2022-09-03T03:21:41;100113.03;;;9.88;71.47
59073;BME280;44859;51.934;15.554;2022-09-03T03:24:13;100114.49;;;9.87;71.74
59073;BME280;44859;51.934;15.554;2022-09-03T03:26:47;100111.04;;;9.85;71.83
59073;BME280;44859;51.934;15.554;2022-09-03T03:29:33;100113.85;;;9.81;72.40
59073;BME280;44859;51.934;15.554;2022-09-03T03:32:04;100114.83;;;9.75;72.73
59073;BME280;44859;51.934;15.554;2022-09-03T03:34:36;100117.77;;;9.70;72.62
59073;BME280;44859;51.934;15.554;2022-09-03T03:37:24;100116.98;;;9.68;72.81
59073;BME280;44859;51.934;15.554;2022-09-03T03:40:31;100118.92;;;9.67;73.01
59073;BME280;44859;51.934;15.554;2022-09-03T03:43:18;100117.48;;;9.64;73.36
59073;BME280;44859;51.934;15.554;2022-09-03T03:45:57;100119.29;;;9.63;73.51
59073;BME280;44859;51.934;15.554;2022-09-03T03:48:29;100124.36;;;9.68;73.49
59073;BME280;44859;51.934;15.554;2022-09-03T03:51:09;100126.59;;;9.69;73.61
59073;BME280;44859;51.934;15.554;2022-09-03T03:56:57;100140.33;;;9.68;74.07
59073;BME280;44859;51.934;15.554;2022-09-03T03:59:28;100136.45;;;9.68;74.31
59073;BME280;44859;51.934;15.554;2022-09-03T04:05:01;100133.94;;;9.65;74.67
59073;BME280;44859;51.934;15.554;2022-09-03T04:07:31;100132.80;;;9.63;74.77
59073;BME280;44859;51.934;15.554;2022-09-03T04:10:20;100132.30;;;9.62;74.95
59073;BME280;44859;51.934;15.554;2022-09-03T04:13:00;100129.24;;;9.60;74.86
59073;BME280;44859;51.934;15.554;2022-09-03T04:18:12;100133.87;;;9.58;75.39
59073;BME280;44859;51.934;15.554;2022-09-03T04:20:52;100135.41;;;9.59;75.59
59073;BME280;44859;51.934;15.554;2022-09-03T04:23:44;100137.33;;;9.59;75.78
59073;BME280;44859;51.934;15.554;2022-09-03T04:26:16;100134.89;;;9.59;76.05
59073;BME280;44859;51.934;15.554;2022-09-03T04:29:13;100133.95;;;9.56;76.28
59073;BME280;44859;51.934;15.554;2022-09-03T04:31:56;100131.88;;;9.50;76.31
59073;BME280;44859;51.934;15.554;2022-09-03T04:35:12;100129.79;;;9.46;76.64
59073;BME280;44859;51.934;15.554;2022-09-03T04:37:44;100136.42;;;9.46;76.87
59073;BME280;44859;51.934;15.554;2022-09-03T04:40:32;100137.64;;;9.47;77.00
59073;BME280;44859;51.934;15.554;2022-09-03T04:43:38;100139.50;;;9.44;77.32
59073;BME280;44859;51.934;15.554;2022-09-03T04:46:31;100142.53;;;9.43;77.09
59073;BME280;44859;51.934;15.554;2022-09-03T04:49:25;100144.55;;;9.41;77.20
59073;BME280;44859;51.934;15.554;2022-09-03T04:52:18;100148.56;;;9.37;77.40
59073;BME280;44859;51.934;15.554;2022-09-03T04:55:00;100153.45;;;9.37;77.81
59073;BME280;44859;51.934;15.554;2022-09-03T04:57:33;100146.85;;;9.40;78.17
59073;BME280;44859;51.934;15.554;2022-09-03T05:00:08;100145.96;;;9.45;77.80
59073;BME280;44859;51.934;15.554;2022-09-03T05:03:01;100150.27;;;9.51;77.89
59073;BME280;44859;51.934;15.554;2022-09-03T05:05:54;100147.81;;;9.60;78.13
59073;BME280;44859;51.934;15.554;2022-09-03T05:08:46;100148.50;;;9.65;78.20
59073;BME280;44859;51.934;15.554;2022-09-03T05:11:27;100143.59;;;9.70;78.14
59073;BME280;44859;51.934;15.554;2022-09-03T05:13:59;100148.89;;;9.73;78.11
59073;BME280;44859;51.934;15.554;2022-09-03T05:17:01;100145.65;;;9.75;78.18
59073;BME280;44859;51.934;15.554;2022-09-03T05:19:29;100143.92;;;9.79;78.01
59073;BME280;44859;51.934;15.554;2022-09-03T05:22:08;100144.49;;;9.82;78.05
59073;BME280;44859;51.934;15.554;2022-09-03T05:24:46;100144.22;;;9.85;78.04
59073;BME280;44859;51.934;15.554;2022-09-03T05:27:43;100149.29;;;9.90;78.20
59073;BME280;44859;51.934;15.554;2022-09-03T05:30:23;100153.86;;;9.98;78.08
59073;BME280;44859;51.934;15.554;2022-09-03T05:33:23;100146.34;;;10.06;78.30
59073;BME280;44859;51.934;15.554;2022-09-03T05:39:39;100144.19;;;10.20;77.83
59073;BME280;44859;51.934;15.554;2022-09-03T05:42:11;100149.38;;;10.30;77.71
59073;BME280;44859;51.934;15.554;2022-09-03T05:44:58;100149.85;;;10.41;77.52
59073;BME280;44859;51.934;15.554;2022-09-03T05:51:27;100153.98;;;10.79;77.20
59073;BME280;44859;51.934;15.554;2022-09-03T05:53:59;100154.34;;;11.03;76.61
59073;BME280;44859;51.934;15.554;2022-09-03T05:57:19;100152.02;;;11.04;76.03
59073;BME280;44859;51.934;15.554;2022-09-03T05:59:56;100154.69;;;11.07;75.72
59073;BME280;44859;51.934;15.554;2022-09-03T06:03:11;100151.72;;;11.15;75.47
59073;BME280;44859;51.934;15.554;2022-09-03T06:15:16;100147.40;;;12.08;72.81
59073;BME280;44859;51.934;15.554;2022-09-03T06:18:51;100146.75;;;12.13;72.68
59073;BME280;44859;51.934;15.554;2022-09-03T06:34:13;100146.68;;;13.27;68.64
59073;BME280;44859;51.934;15.554;2022-09-03T06:44:06;100153.58;;;13.82;66.48
59073;BME280;44859;51.934;15.554;2022-09-03T06:49:54;100153.66;;;14.39;65.28
59073;BME280;44859;51.934;15.554;2022-09-03T06:52:58;100152.19;;;14.46;64.23
59073;BME280;44859;51.934;15.554;2022-09-03T06:56:09;100159.31;;;14.36;63.98
59073;BME280;44859;51.934;15.554;2022-09-03T07:02:18;100158.02;;;14.28;63.19
59073;BME280;44859;51.934;15.554;2022-09-03T07:05:30;100157.85;;;14.28;63.81
59073;BME280;44859;51.934;15.554;2022-09-03T07:08:16;100155.06;;;14.51;63.02
59073;BME280;44859;51.934;15.554;2022-09-03T07:11:32;100153.34;;;14.57;62.77
59073;BME280;44859;51.934;15.554;2022-09-03T07:14:54;100157.55;;;14.48;62.43
59073;BME280;44859;51.934;15.554;2022-09-03T07:17:30;100158.80;;;14.66;62.01
59073;BME280;44859;51.934;15.554;2022-09-03T07:20:08;100160.58;;;15.01;61.48
59073;BME280;44859;51.934;15.554;2022-09-03T07:22:45;100156.20;;;15.15;60.48
59073;BME280;44859;51.934;15.554;2022-09-03T07:25:24;100152.55;;;15.05;60.16
59073;BME280;44859;51.934;15.554;2022-09-03T07:27:58;100151.77;;;15.09;60.04
59073;BME280;44859;51.934;15.554;2022-09-03T07:30:38;100154.14;;;15.08;60.14
59073;BME280;44859;51.934;15.554;2022-09-03T07:33:12;100148.91;;;15.16;60.34
59073;BME280;44859;51.934;15.554;2022-09-03T07:36:00;100150.91;;;15.23;59.84
59073;BME280;44859;51.934;15.554;2022-09-03T07:41:52;100151.52;;;15.39;59.48
59073;BME280;44859;51.934;15.554;2022-09-03T07:44:28;100146.95;;;15.72;58.82
59073;BME280;44859;51.934;15.554;2022-09-03T07:47:00;100148.96;;;16.01;58.25
59073;BME280;44859;51.934;15.554;2022-09-03T07:49:54;100147.63;;;16.38;57.98
59073;BME280;44859;51.934;15.554;2022-09-03T07:52:28;100146.03;;;16.64;56.70
59073;BME280;44859;51.934;15.554;2022-09-03T07:55:15;100157.64;;;16.49;56.59
59073;BME280;44859;51.934;15.554;2022-09-03T07:57:47;100157.08;;;16.34;56.09
59073;BME280;44859;51.934;15.554;2022-09-03T08:00:25;100153.13;;;16.16;56.39
59073;BME280;44859;51.934;15.554;2022-09-03T08:02:58;100151.79;;;16.26;56.54
59073;BME280;44859;51.934;15.554;2022-09-03T08:05:50;100149.02;;;16.43;56.30
59073;BME280;44859;51.934;15.554;2022-09-03T08:08:47;100149.98;;;16.63;56.32
59073;BME280;44859;51.934;15.554;2022-09-03T08:11:35;100153.34;;;16.69;55.68
59073;BME280;44859;51.934;15.554;2022-09-03T08:14:15;100149.69;;;16.81;55.35
59073;BME280;44859;51.934;15.554;2022-09-03T08:16:53;100147.23;;;17.01;54.86
59073;BME280;44859;51.934;15.554;2022-09-03T08:19:36;100144.51;;;17.15;54.27
59073;BME280;44859;51.934;15.554;2022-09-03T08:22:12;100144.92;;;17.34;53.57
59073;BME280;44859;51.934;15.554;2022-09-03T08:24:50;100140.14;;;17.54;52.82
59073;BME280;44859;51.934;15.554;2022-09-03T08:27:32;100144.05;;;17.71;52.97
59073;BME280;44859;51.934;15.554;2022-09-03T08:30:07;100146.70;;;17.93;52.19
59073;BME280;44859;51.934;15.554;2022-09-03T08:33:00;100142.20;;;18.16;51.68
59073;BME280;44859;51.934;15.554;2022-09-03T08:35:32;100141.95;;;18.12;51.74
59073;BME280;44859;51.934;15.554;2022-09-03T08:38:06;100140.79;;;18.09;51.83
59073;BME280;44859;51.934;15.554;2022-09-03T08:40:38;100137.80;;;18.15;52.00
59073;BME280;44859;51.934;15.554;2022-09-03T08:43:14;100141.61;;;18.21;50.81
59073;BME280;44859;51.934;15.554;2022-09-03T08:45:46;100141.55;;;18.27;48.92
59073;BME280;44859;51.934;15.554;2022-09-03T08:48:20;100139.42;;;18.27;49.93
59073;BME280;44859;51.934;15.554;2022-09-03T08:51:02;100135.38;;;18.54;49.65
59073;BME280;44859;51.934;15.554;2022-09-03T08:53:52;100134.08;;;18.67;48.63
59073;BME280;44859;51.934;15.554;2022-09-03T08:56:45;100132.54;;;18.52;47.47
59073;BME280;44859;51.934;15.554;2022-09-03T08:59:14;100125.91;;;18.45;47.87
59073;BME280;44859;51.934;15.554;2022-09-03T09:09:27;100125.06;;;18.85;47.35
59073;BME280;44859;51.934;15.554;2022-09-03T09:21:14;100123.07;;;19.17;45.73
59073;BME280;44859;51.934;15.554;2022-09-03T09:23:59;100122.52;;;19.15;44.81
59073;BME280;44859;51.934;15.554;2022-09-03T09:26:28;100119.84;;;19.06;44.27
59073;BME280;44859;51.934;15.554;2022-09-03T09:29:21;100115.61;;;19.30;45.19
59073;BME280;44859;51.934;15.554;2022-09-03T09:31:52;100114.27;;;19.60;44.71
59073;BME280;44859;51.934;15.554;2022-09-03T09:34:47;100110.60;;;19.77;43.87
59073;BME280;44859;51.934;15.554;2022-09-03T09:37:24;100106.74;;;20.00;43.32
59073;BME280;44859;51.934;15.554;2022-09-03T09:39:58;100107.77;;;20.01;43.24
59073;BME280;44859;51.934;15.554;2022-09-03T09:42:28;100111.54;;;20.13;43.06
59073;BME280;44859;51.934;15.554;2022-09-03T09:45:08;100104.42;;;20.19;42.86
59073;BME280;44859;51.934;15.554;2022-09-03T09:47:44;100101.35;;;20.14;42.06
59073;BME280;44859;51.934;15.554;2022-09-03T09:50:33;100101.35;;;20.16;41.69
59073;BME280;44859;51.934;15.554;2022-09-03T09:54:17;100101.23;;;20.24;41.59
59073;BME280;44859;51.934;15.554;2022-09-03T09:56:22;100100.30;;;20.26;41.18
59073;BME280;44859;51.934;15.554;2022-09-03T09:59:24;100097.27;;;20.13;40.85
59073;BME280;44859;51.934;15.554;2022-09-03T10:02:46;100096.55;;;20.01;41.31
59073;BME280;44859;51.934;15.554;2022-09-03T10:08:19;100091.98;;;20.34;40.09
59073;BME280;44859;51.934;15.554;2022-09-03T10:11:15;100096.40;;;20.42;39.28
59073;BME280;44859;51.934;15.554;2022-09-03T10:17:28;100087.58;;;20.67;38.87
59073;BME280;44859;51.934;15.554;2022-09-03T10:20:41;100084.44;;;20.61;39.32
59073;BME280;44859;51.934;15.554;2022-09-03T10:23:21;100084.52;;;20.44;38.32
59073;BME280;44859;51.934;15.554;2022-09-03T10:28:56;100077.73;;;20.71;38.06
59073;BME280;44859;51.934;15.554;2022-09-03T10:32:23;100070.52;;;20.91;37.69
59073;BME280;44859;51.934;15.554;2022-09-03T10:35:42;100067.75;;;21.22;38.30
59073;BME280;44859;51.934;15.554;2022-09-03T10:39:05;100067.16;;;21.53;37.45
59073;BME280;44859;51.934;15.554;2022-09-03T10:50:16;100059.52;;;21.53;36.68
59073;BME280;44859;51.934;15.554;2022-09-03T10:53:29;100057.98;;;21.72;36.72
59073;BME280;44859;51.934;15.554;2022-09-03T10:56:04;100060.83;;;21.70;36.46
59073;BME280;44859;51.934;15.554;2022-09-03T11:07:33;100057.20;;;21.02;36.54
59073;BME280;44859;51.934;15.554;2022-09-03T11:10:34;100054.96;;;20.83;36.39
59073;BME280;44859;51.934;15.554;2022-09-03T11:13:37;100045.70;;;21.17;37.13
59073;BME280;44859;51.934;15.554;2022-09-03T11:16:21;100039.52;;;21.55;35.44
59073;BME280;44859;51.934;15.554;2022-09-03T11:21:31;100045.94;;;21.20;35.84
59073;BME280;44859;51.934;15.554;2022-09-03T11:24:18;100040.84;;;20.98;36.33
59073;BME280;44859;51.934;15.554;2022-09-03T11:30:05;100036.70;;;21.18;36.89
59073;BME280;44859;51.934;15.554;2022-09-03T11:35:40;100030.37;;;20.68;36.95
59073;BME280;44859;51.934;15.554;2022-09-03T11:38:23;100026.17;;;20.61;37.51
59073;BME280;44859;51.934;15.554;2022-09-03T11:44:40;100027.19;;;20.37;37.99
59073;BME280;44859;51.934;15.554;2022-09-03T11:47:43;100020.80;;;20.53;37.74
59073;BME280;44859;51.934;15.554;2022-09-03T11:50:25;100016.77;;;20.48;37.28
59073;BME280;44859;51.934;15.554;2022-09-03T11:56:18;100005.08;;;20.26;37.75
59073;BME280;44859;51.934;15.554;2022-09-03T12:02:33;100018.02;;;20.08;38.09
59073;BME280;44859;51.934;15.554;2022-09-03T12:08:46;100002.88;;;20.48;37.79
59073;BME280;44859;51.934;15.554;2022-09-03T12:17:52;100003.92;;;20.79;36.65
59073;BME280;44859;51.934;15.554;2022-09-03T12:21:06;99992.72;;;20.58;37.02
59073;BME280;44859;51.934;15.554;2022-09-03T12:24:00;99987.85;;;20.87;37.42
59073;BME280;44859;51.934;15.554;2022-09-03T12:26:39;99986.79;;;21.21;37.36
59073;BME280;44859;51.934;15.554;2022-09-03T12:29:28;99988.13;;;21.34;36.39
59073;BME280;44859;51.934;15.554;2022-09-03T12:32:07;99994.73;;;20.78;36.63
59073;BME280;44859;51.934;15.554;2022-09-03T12:34:41;99990.50;;;20.59;37.22
59073;BME280;44859;51.934;15.554;2022-09-03T12:37:23;99985.41;;;20.80;37.54
59073;BME280;44859;51.934;15.554;2022-09-03T12:40:19;99986.40;;;21.04;36.77
59073;BME280;44859;51.934;15.554;2022-09-03T12:42:53;99985.73;;;21.09;36.60
59073;BME280;44859;51.934;15.554;2022-09-03T12:45:47;99981.70;;;21.14;36.57
59073;BME280;44859;51.934;15.554;2022-09-03T12:48:55;99982.39;;;21.26;36.49
59073;BME280;44859;51.934;15.554;2022-09-03T12:51:46;99983.23;;;21.11;36.36
59073;BME280;44859;51.934;15.554;2022-09-03T12:54:40;99977.75;;;20.95;36.09
59073;BME280;44859;51.934;15.554;2022-09-03T12:57:21;99980.37;;;20.83;36.61
59073;BME280;44859;51.934;15.554;2022-09-03T12:59:57;99975.21;;;20.77;36.21
59073;BME280;44859;51.934;15.554;2022-09-03T13:05:42;99973.29;;;20.47;36.18
59073;BME280;44859;51.934;15.554;2022-09-03T13:08:28;99970.84;;;20.36;36.80
59073;BME280;44859;51.934;15.554;2022-09-03T13:11:05;99969.52;;;20.31;37.06
59073;BME280;44859;51.934;15.554;2022-09-03T13:13:47;99974.07;;;20.28;37.03
59073;BME280;44859;51.934;15.554;2022-09-03T13:22:56;99971.35;;;20.20;37.41
59073;BME280;44859;51.934;15.554;2022-09-03T13:31:32;99961.10;;;20.32;37.38
59073;BME280;44859;51.934;15.554;2022-09-03T13:34:05;99972.61;;;20.35;37.83
59073;BME280;44859;51.934;15.554;2022-09-03T13:39:46;99969.70;;;20.43;37.33
59073;BME280;44859;51.934;15.554;2022-09-03T13:45:27;99963.79;;;20.17;37.59
59073;BME280;44859;51.934;15.554;2022-09-03T13:48:17;99958.82;;;20.19;37.77
59073;BME280;44859;51.934;15.554;2022-09-03T13:51:46;99957.89;;;20.44;37.91
59073;BME280;44859;51.934;15.554;2022-09-03T13:55:25;99955.34;;;20.81;37.47
59073;BME280;44859;51.934;15.554;2022-09-03T13:58:23;99958.14;;;21.58;37.91
59073;BME280;44859;51.934;15.554;2022-09-03T14:04:10;99956.93;;;21.90;35.72
59073;BME280;44859;51.934;15.554;2022-09-03T14:07:01;99951.89;;;21.90;35.69
59073;BME280;44859;51.934;15.554;2022-09-03T14:16:44;99945.36;;;21.59;35.37
59073;BME280;44859;51.934;15.554;2022-09-03T14:19:47;99938.74;;;21.66;35.03
59073;BME280;44859;51.934;15.554;2022-09-03T14:22:53;99942.36;;;21.46;35.02
59073;BME280;44859;51.934;15.554;2022-09-03T14:25:39;99939.11;;;21.17;35.75
59073;BME280;44859;51.934;15.554;2022-09-03T14:35:52;99945.88;;;20.18;37.14
59073;BME280;44859;51.934;15.554;2022-09-03T14:43:16;99942.48;;;20.14;37.29
59073;BME280;44859;51.934;15.554;2022-09-03T15:01:09;99933.52;;;20.06;38.20
59073;BME280;44859;51.934;15.554;2022-09-03T15:15:43;99923.04;;;20.39;37.54
59073;BME280;44859;51.934;15.554;2022-09-03T15:18:42;99927.59;;;20.23;37.61
59073;BME280;44859;51.934;15.554;2022-09-03T15:24:47;99919.24;;;20.08;38.08
59073;BME280;44859;51.934;15.554;2022-09-03T15:33:08;99918.95;;;20.02;38.60
59073;BME280;44859;51.934;15.554;2022-09-03T15:36:02;99921.97;;;20.03;38.89
59073;BME280;44859;51.934;15.554;2022-09-03T15:38:40;99923.35;;;20.04;38.67
59073;BME280;44859;51.934;15.554;2022-09-03T15:43:58;99928.27;;;20.05;38.87
59073;BME280;44859;51.934;15.554;2022-09-03T15:46:47;99924.81;;;20.04;38.89
59073;BME280;44859;51.934;15.554;2022-09-03T15:54:54;99923.67;;;19.99;39.35
59073;BME280;44859;51.934;15.554;2022-09-03T15:57:49;99927.32;;;19.93;39.20
59073;BME280;44859;51.934;15.554;2022-09-03T16:01:21;99923.99;;;19.88;39.17
59073;BME280;44859;51.934;15.554;2022-09-03T16:03:40;99927.30;;;19.85;39.31
59073;BME280;44859;51.934;15.554;2022-09-03T16:13:02;99930.89;;;19.61;39.73
59073;BME280;44859;51.934;15.554;2022-09-03T16:15:37;99928.88;;;19.53;40.14
59073;BME280;44859;51.934;15.554;2022-09-03T16:18:52;99929.89;;;19.50;40.31
59073;BME280;44859;51.934;15.554;2022-09-03T16:24:44;99931.52;;;19.39;40.05
59073;BME280;44859;51.934;15.554;2022-09-03T16:27:33;99927.76;;;19.35;40.19
59073;BME280;44859;51.934;15.554;2022-09-03T16:41:33;99924.41;;;19.13;41.13
59073;BME280;44859;51.934;15.554;2022-09-03T16:47:16;99930.64;;;19.09;41.45
59073;BME280;44859;51.934;15.554;2022-09-03T16:50:37;99932.38;;;19.07;41.70
59073;BME280;44859;51.934;15.554;2022-09-03T17:00:03;99931.10;;;18.90;42.66
59073;BME280;44859;51.934;15.554;2022-09-03T17:22:11;99942.61;;;18.27;43.78
59073;BME280;44859;51.934;15.554;2022-09-03T17:24:50;99940.36;;;18.20;44.06
59073;BME280;44859;51.934;15.554;2022-09-03T17:30:05;99939.65;;;18.06;44.53
59073;BME280;44859;51.934;15.554;2022-09-03T17:36:30;99938.45;;;17.94;44.61
59073;BME280;44859;51.934;15.554;2022-09-03T17:44:43;99947.05;;;17.69;45.16
59073;BME280;44859;51.934;15.554;2022-09-03T17:50:24;99950.25;;;17.55;45.58
59073;BME280;44859;51.934;15.554;2022-09-03T18:03:23;99952.31;;;17.28;46.23
59073;BME280;44859;51.934;15.554;2022-09-03T18:06:22;99951.86;;;17.23;46.07
59073;BME280;44859;51.934;15.554;2022-09-03T18:09:03;99954.11;;;17.20;46.43
59073;BME280;44859;51.934;15.554;2022-09-03T18:11:38;99952.80;;;17.18;46.43
59073;BME280;44859;51.934;15.554;2022-09-03T18:14:31;99951.37;;;17.16;46.67
59073;BME280;44859;51.934;15.554;2022-09-03T18:20:07;99955.59;;;17.09;46.95
59073;BME280;44859;51.934;15.554;2022-09-03T18:23:06;99959.85;;;17.02;47.20
59073;BME280;44859;51.934;15.554;2022-09-03T18:26:00;99956.82;;;16.92;47.26
59073;BME280;44859;51.934;15.554;2022-09-03T18:32:46;99976.58;;;16.86;47.58
59073;BME280;44859;51.934;15.554;2022-09-03T18:35:34;99982.05;;;16.86;47.35
59073;BME280;44859;51.934;15.554;2022-09-03T18:39:30;99983.73;;;16.82;47.72
59073;BME280;44859;51.934;15.554;2022-09-03T18:48:43;99989.55;;;16.76;48.05
59073;BME280;44859;51.934;15.554;2022-09-03T18:51:59;99995.31;;;16.69;48.16
59073;BME280;44859;51.934;15.554;2022-09-03T18:55:07;99992.10;;;16.64;48.02
59073;BME280;44859;51.934;15.554;2022-09-03T19:01:36;99995.80;;;16.55;48.42
59073;BME280;44859;51.934;15.554;2022-09-03T19:05:07;99998.63;;;16.50;48.56
59073;BME280;44859;51.934;15.554;2022-09-03T19:13:47;100005.08;;;16.39;49.19
59073;BME280;44859;51.934;15.554;2022-09-03T19:20:19;100002.59;;;16.31;49.47
59073;BME280;44859;51.934;15.554;2022-09-03T19:23:14;99997.81;;;16.23;49.52
59073;BME280;44859;51.934;15.554;2022-09-03T19:30:09;100003.73;;;16.14;49.65
59073;BME280;44859;51.934;15.554;2022-09-03T19:33:14;100004.33;;;16.13;50.24
59073;BME280;44859;51.934;15.554;2022-09-03T19:36:21;100003.40;;;16.14;50.18
59073;BME280;44859;51.934;15.554;2022-09-03T19:52:19;100014.64;;;16.08;50.22
59073;BME280;44859;51.934;15.554;2022-09-03T19:55:19;100018.20;;;16.13;50.17
59073;BME280;44859;51.934;15.554;2022-09-03T19:58:09;100023.00;;;16.09;50.16
59073;BME280;44859;51.934;15.554;2022-09-03T20:01:36;100022.16;;;16.06;50.37
59073;BME280;44859;51.934;15.554;2022-09-03T20:04:37;100025.65;;;16.02;50.26
59073;BME280;44859;51.934;15.554;2022-09-03T20:07:29;100030.88;;;15.93;50.37
59073;BME280;44859;51.934;15.554;2022-09-03T20:10:21;100032.62;;;15.88;50.46
59073;BME280;44859;51.934;15.554;2022-09-03T20:16:10;100039.48;;;15.77;50.54
59073;BME280;44859;51.934;15.554;2022-09-03T20:22:38;100041.55;;;15.73;50.51
59073;BME280;44859;51.934;15.554;2022-09-03T20:31:52;100044.08;;;15.67;50.56
59073;BME280;44859;51.934;15.554;2022-09-03T20:34:49;100049.27;;;15.63;50.86
59073;BME280;44859;51.934;15.554;2022-09-03T20:38:04;100044.67;;;15.58;50.69
59073;BME280;44859;51.934;15.554;2022-09-03T20:40:47;100046.58;;;15.55;50.93
59073;BME280;44859;51.934;15.554;2022-09-03T20:43:44;100049.63;;;15.52;51.09
59073;BME280;44859;51.934;15.554;2022-09-03T20:52:36;100055.14;;;15.38;51.37
59073;BME280;44859;51.934;15.554;2022-09-03T20:56:00;100053.88;;;15.33;51.19
59073;BME280;44859;51.934;15.554;2022-09-03T21:01:22;100056.77;;;15.23;51.79
59073;BME280;44859;51.934;15.554;2022-09-03T21:07:41;100058.68;;;15.10;51.75
59073;BME280;44859;51.934;15.554;2022-09-03T21:10:32;100060.88;;;15.03;52.03
59073;BME280;44859;51.934;15.554;2022-09-03T21:13:22;100062.52;;;14.94;52.34
59073;BME280;44859;51.934;15.554;2022-09-03T21:16:23;100063.02;;;14.86;52.56
59073;BME280;44859;51.934;15.554;2022-09-03T21:19:10;100063.63;;;14.82;52.64
59073;BME280;44859;51.934;15.554;2022-09-03T21:22:04;100059.66;;;14.74;52.80
59073;BME280;44859;51.934;15.554;2022-09-03T21:25:37;100060.59;;;14.71;53.09
59073;BME280;44859;51.934;15.554;2022-09-03T21:28:02;100055.14;;;14.70;52.99
59073;BME280;44859;51.934;15.554;2022-09-03T21:30:39;100059.59;;;14.73;53.07